Time;durP1;ratioP1;P1;durP2;ratioP2;P2;SDS_P1;SDS_P2;PMS_P1;PMS_P2;Temp;Humidity;BMP_temperature;BMP_pressure;BME280_temperature;BME280_humidity;BME280_pressure;Samples;Min_cycle;Max_cycle;Signal;HPM_P1;HPM_P2
2022/05/13 00:01:27;;;;;;;2.63;2.00;;;21.80;68.80;;;;;;4974580;28;20410;-68
2022/05/13 00:03:54;;;;;;;3.60;1.60;;;21.70;68.70;;;;;;4974034;28;20821;-68
2022/05/13 00:06:20;;;;;;;2.30;2.03;;;21.80;68.90;;;;;;4957391;28;20428;-68
2022/05/13 00:08:46;;;;;;;4.40;1.90;;;21.70;68.80;;;;;;4973378;28;20468;-68
2022/05/13 00:11:17;;;;;;;1.90;1.40;;;21.70;68.80;;;;;;4974885;28;20417;-68
2022/05/13 00:13:45;;;;;;;4.60;1.90;;;21.70;68.90;;;;;;4935781;28;1093766;-68
2022/05/13 00:16:12;;;;;;;2.53;1.93;;;21.70;69.00;;;;;;4957516;28;20205;-68
2022/05/13 00:18:38;;;;;;;4.43;2.07;;;21.70;69.00;;;;;;4956665;29;20446;-68
2022/05/13 00:21:04;;;;;;;3.83;2.30;;;21.60;69.00;;;;;;4954820;29;20537;-68
2022/05/13 00:23:30;;;;;;;2.60;1.70;;;21.60;69.10;;;;;;4955904;29;20183;-68
2022/05/13 00:25:59;;;;;;;3.17;2.10;;;21.60;69.20;;;;;;4923682;29;20407;-68
2022/05/13 00:28:27;;;;;;;2.30;1.87;;;21.60;69.20;;;;;;4954607;29;20445;-68
2022/05/13 00:30:59;;;;;;;3.17;2.23;;;21.50;69.20;;;;;;4954883;29;20405;-68
2022/05/13 00:33:26;;;;;;;2.73;2.03;;;21.50;69.20;;;;;;4954457;29;20423;-68
2022/05/13 00:35:54;;;;;;;2.10;1.90;;;21.50;69.30;;;;;;4954594;29;20501;-69
2022/05/13 00:38:22;;;;;;;2.30;1.80;;;21.50;69.40;;;;;;4954558;29;21085;-68
2022/05/13 00:40:52;;;;;;;3.50;2.17;;;21.50;69.40;;;;;;4955882;29;20484;-69
2022/05/13 00:43:42;;;;;;;3.17;1.90;;;21.50;69.40;;;;;;4955762;29;20411;-69
2022/05/13 00:46:10;;;;;;;1.90;1.70;;;21.40;69.30;;;;;;4954646;29;20501;-69
2022/05/13 00:48:36;;;;;;;2.10;1.73;;;21.40;69.30;;;;;;4954355;29;20445;-68
2022/05/13 00:51:08;;;;;;;3.70;2.27;;;21.40;69.40;;;;;;4954453;29;20498;-69
2022/05/13 00:53:37;;;;;;;3.47;1.90;;;21.40;69.40;;;;;;4938384;29;20242;-68
2022/05/13 00:56:04;;;;;;;3.40;1.97;;;21.30;69.40;;;;;;4955386;28;20450;-69
2022/05/13 00:58:33;;;;;;;3.60;1.70;;;21.40;69.50;;;;;;4953407;29;20997;-68
2022/05/13 01:01:01;;;;;;;3.00;1.90;;;21.30;69.50;;;;;;4938352;29;20409;-68
2022/05/13 01:03:30;;;;;;;2.40;2.00;;;21.30;69.40;;;;;;4938269;29;20423;-68
2022/05/13 01:06:00;;;;;;;2.30;2.10;;;21.30;69.50;;;;;;4954213;29;20401;-68
2022/05/13 01:08:32;;;;;;;3.07;1.80;;;21.20;69.40;;;;;;4954051;29;20471;-68
2022/05/13 01:11:03;;;;;;;2.40;2.20;;;21.30;69.60;;;;;;4937681;29;20477;-68
2022/05/13 01:13:34;;;;;;;4.20;2.60;;;21.20;69.50;;;;;;4954917;29;20961;-69
2022/05/13 01:16:00;;;;;;;2.03;1.80;;;21.20;69.50;;;;;;4954949;29;20484;-68
2022/05/13 01:18:36;;;;;;;6.03;2.53;;;21.20;69.50;;;;;;4955080;29;20446;-68
2022/05/13 01:21:06;;;;;;;2.07;1.80;;;21.20;69.70;;;;;;4937877;29;20420;-68
2022/05/13 01:23:42;;;;;;;3.07;1.87;;;21.20;69.60;;;;;;4937891;29;20431;-68
2022/05/13 01:26:17;;;;;;;3.30;1.90;;;21.10;69.60;;;;;;4955301;29;20400;-68
2022/05/13 01:28:50;;;;;;;3.10;2.00;;;21.10;69.60;;;;;;4953722;29;20442;-68
2022/05/13 01:31:27;;;;;;;3.20;1.97;;;21.10;69.60;;;;;;4953639;29;20417;-68
2022/05/13 01:33:53;;;;;;;2.50;1.83;;;21.10;69.60;;;;;;4937663;29;20429;-68
2022/05/13 01:36:22;;;;;;;1.80;1.70;;;21.10;69.70;;;;;;4954671;29;20482;-68
2022/05/13 01:38:50;;;;;;;3.40;2.43;;;21.10;69.70;;;;;;4953399;29;20472;-69
2022/05/13 01:41:19;;;;;;;2.70;1.93;;;21.10;69.70;;;;;;4954783;29;20406;-68
2022/05/13 01:43:47;;;;;;;4.20;2.00;;;21.00;69.60;;;;;;4937438;28;20397;-67
2022/05/13 01:46:16;;;;;;;2.70;2.20;;;21.00;69.60;;;;;;4921873;29;20496;-68
2022/05/13 01:48:45;;;;;;;3.60;1.87;;;21.00;69.60;;;;;;4937439;29;20465;-68
2022/05/13 01:51:11;;;;;;;2.80;1.90;;;21.00;69.60;;;;;;4953225;29;20801;-68
2022/05/13 01:53:43;;;;;;;4.20;2.43;;;20.90;69.50;;;;;;4954472;29;20409;-69
2022/05/13 01:56:09;;;;;;;3.70;2.17;;;20.90;69.50;;;;;;4953087;29;20452;-68
2022/05/13 01:58:38;;;;;;;2.07;1.87;;;20.90;69.50;;;;;;4937188;29;20967;-68
2022/05/13 02:01:10;;;;;;;2.57;1.90;;;20.90;69.50;;;;;;4937214;29;20441;-68
2022/05/13 02:03:44;;;;;;;2.30;1.80;;;20.90;69.50;;;;;;4954402;29;20432;-68
2022/05/13 02:06:20;;;;;;;1.97;1.77;;;20.80;69.40;;;;;;4954278;29;20444;-67
2022/05/13 02:08:53;;;;;;;4.57;2.43;;;20.80;69.50;;;;;;4936261;29;20452;-68
2022/05/13 02:11:20;;;;;;;2.70;1.97;;;20.80;69.40;;;;;;4952891;29;20472;-68
2022/05/13 02:13:47;;;;;;;2.83;2.03;;;20.80;69.50;;;;;;4952826;29;20450;-68
2022/05/13 02:16:13;;;;;;;2.93;2.00;;;20.80;69.50;;;;;;4952919;29;20452;-68
2022/05/13 02:18:40;;;;;;;2.90;1.90;;;20.80;69.50;;;;;;4954172;29;20448;-68
2022/05/13 02:21:07;;;;;;;3.17;2.07;;;20.70;69.30;;;;;;4952111;29;20408;-68
2022/05/13 02:23:34;;;;;;;2.50;2.00;;;20.70;69.40;;;;;;4952796;29;20441;-68
2022/05/13 02:26:07;;;;;;;5.63;2.30;;;20.70;69.40;;;;;;4952757;29;20403;-68
2022/05/13 02:28:34;;;;;;;4.00;1.83;;;20.70;69.40;;;;;;4953093;29;20464;-68
2022/05/13 02:31:02;;;;;;;2.43;2.10;;;20.70;69.50;;;;;;4954204;29;20436;-68
2022/05/13 02:33:32;;;;;;;2.77;2.00;;;20.70;69.50;;;;;;4952975;29;20791;-68
2022/05/13 02:36:01;;;;;;;3.47;1.87;;;20.60;69.40;;;;;;4953039;29;20506;-68
2022/05/13 02:38:27;;;;;;;3.37;2.20;;;20.60;69.50;;;;;;4953927;29;20449;-68
2022/05/13 02:41:14;;;;;;;2.63;2.20;;;20.60;69.60;;;;;;4953079;29;20415;-68
2022/05/13 02:43:53;;;;;;;2.83;1.80;;;20.60;69.60;;;;;;4952783;28;20506;-68
2022/05/13 02:46:27;;;;;;;3.10;2.20;;;20.60;69.60;;;;;;4953100;29;20417;-68
2022/05/13 02:48:54;;;;;;;3.33;2.10;;;20.50;69.40;;;;;;4952509;29;20444;-68
2022/05/13 02:51:26;;;;;;;4.13;2.20;;;20.50;69.50;;;;;;4952900;29;20467;-68
2022/05/13 02:53:54;;;;;;;3.50;1.97;;;20.50;69.50;;;;;;4952938;29;20404;-68
2022/05/13 02:56:24;;;;;;;2.63;1.90;;;20.40;69.40;;;;;;4952792;29;20513;-69
2022/05/13 02:58:49;;;;;;;5.50;2.33;;;20.40;69.30;;;;;;4952670;29;20422;-69
2022/05/13 03:01:17;;;;;;;2.87;1.97;;;20.50;69.40;;;;;;4952338;29;20858;-68
2022/05/13 03:03:45;;;;;;;3.17;2.13;;;20.40;69.20;;;;;;4936471;29;20790;-68
2022/05/13 03:06:11;;;;;;;2.10;1.47;;;20.40;69.10;;;;;;4953742;29;20501;-68
2022/05/13 03:08:40;;;;;;;3.47;2.20;;;20.40;69.10;;;;;;4952379;28;20456;-68
2022/05/13 03:11:07;;;;;;;5.03;2.37;;;20.30;68.90;;;;;;4952587;29;20479;-68
2022/05/13 03:13:36;;;;;;;4.47;1.90;;;20.30;68.90;;;;;;4952406;29;20540;-68
2022/05/13 03:16:08;;;;;;;2.20;2.00;;;20.30;68.80;;;;;;4936357;29;20480;-68
2022/05/13 03:18:34;;;;;;;3.30;1.83;;;20.30;68.70;;;;;;4953465;29;20857;-69
2022/05/13 03:21:02;;;;;;;3.33;2.20;;;20.30;68.70;;;;;;4955838;28;20488;-68
2022/05/13 03:23:30;;;;;;;3.90;1.80;;;20.30;69.50;;;;;;4956027;29;20825;-68
2022/05/13 03:25:59;;;;;;;2.43;1.70;;;20.20;68.60;;;;;;4939797;29;20416;-68
2022/05/13 03:28:30;;;;;;;3.50;2.03;;;20.20;68.50;;;;;;4956825;29;20462;-68
2022/05/13 03:30:58;;;;;;;3.40;2.10;;;20.20;68.60;;;;;;4956973;29;20454;-68
2022/05/13 03:33:26;;;;;;;2.70;1.90;;;20.20;68.50;;;;;;4957080;29;20409;-68
2022/05/13 03:35:52;;;;;;;5.03;2.07;;;20.20;68.50;;;;;;4956784;29;20457;-68
2022/05/13 03:38:18;;;;;;;2.80;1.50;;;20.20;68.60;;;;;;4955538;29;20990;-68
2022/05/13 03:40:47;;;;;;;3.10;1.90;;;20.20;68.60;;;;;;4955667;29;20433;-68
2022/05/13 03:43:13;;;;;;;4.90;1.70;;;20.10;68.40;;;;;;4950379;29;20953;-68
2022/05/13 03:45:42;;;;;;;3.70;1.60;;;20.10;68.50;;;;;;4937613;29;20519;-68
2022/05/13 03:48:10;;;;;;;4.70;1.73;;;20.10;68.50;;;;;;4936496;29;20986;-68
2022/05/13 03:50:41;;;;;;;3.10;1.70;;;20.10;68.40;;;;;;4937465;29;20445;-68
2022/05/13 03:53:09;;;;;;;4.23;2.07;;;20.10;68.40;;;;;;4920480;29;20541;-68
2022/05/13 03:55:36;;;;;;;2.97;1.80;;;20.00;68.40;;;;;;4920264;29;20503;-68
2022/05/13 03:58:04;;;;;;;5.63;2.20;;;20.00;68.40;;;;;;4936378;29;20845;-68
2022/05/13 04:00:33;;;;;;;2.80;1.53;;;20.00;68.30;;;;;;4937356;29;20420;-68
2022/05/13 04:03:00;;;;;;;1.97;1.87;;;20.00;68.30;;;;;;4937216;29;20437;-68
2022/05/13 04:10:57;;;;;;;3.60;1.60;;;19.90;68.10;;;;;;4928545;29;20443;-68
2022/05/13 04:16:10;;;;;;;1.80;1.40;;;19.90;68.20;;;;;;4956258;29;20447;-68
2022/05/13 04:18:45;;;;;;;3.40;1.80;;;19.90;68.20;;;;;;4956436;29;20440;-68
2022/05/13 04:21:22;;;;;;;3.30;1.83;;;19.80;68.10;;;;;;4955344;29;20741;-68
2022/05/13 04:23:53;;;;;;;2.03;1.37;;;19.80;68.10;;;;;;4956305;29;20820;-68
2022/05/13 04:26:22;;;;;;;4.30;1.63;;;19.80;68.10;;;;;;4954861;29;20404;-68
2022/05/13 04:28:51;;;;;;;3.80;1.73;;;19.80;68.20;;;;;;4939107;29;20465;-68
2022/05/13 04:31:20;;;;;;;1.90;1.47;;;19.80;68.20;;;;;;4954434;28;20564;-68
2022/05/13 04:33:50;;;;;;;5.13;1.50;;;19.80;68.10;;;;;;4955786;29;20407;-68
2022/05/13 04:36:17;;;;;;;4.23;1.60;;;19.70;68.00;;;;;;4938904;28;20995;-68
2022/05/13 04:38:46;;;;;;;4.17;1.80;;;19.70;68.00;;;;;;4955901;29;20483;-68
2022/05/13 04:44:03;;;;;;;3.27;1.70;;;19.70;68.10;;;;;;4938996;29;20960;-68
2022/05/13 04:46:33;;;;;;;2.33;1.53;;;19.70;68.10;;;;;;4938952;29;20431;-68
2022/05/13 04:49:04;;;;;;;3.00;1.77;;;19.60;68.10;;;;;;4955667;29;20455;-68
2022/05/13 04:51:36;;;;;;;2.40;1.87;;;19.60;68.20;;;;;;4955601;29;20815;-66
2022/05/13 04:54:05;;;;;;;4.57;1.50;;;19.60;68.20;;;;;;4954480;29;20544;-69
2022/05/13 04:56:35;;;;;;;4.43;1.80;;;19.60;68.20;;;;;;4955512;29;20563;-68
2022/05/13 04:59:04;;;;;;;2.27;1.67;;;19.60;68.30;;;;;;4955549;29;20950;-68
2022/05/13 05:01:33;;;;;;;2.60;1.63;;;19.60;68.30;;;;;;4954182;29;20411;-68
2022/05/13 05:04:01;;;;;;;2.03;1.77;;;19.60;68.30;;;;;;4938477;29;20436;-68
2022/05/13 05:06:36;;;;;;;2.47;1.40;;;19.60;68.40;;;;;;4938298;29;20438;-68
2022/05/13 05:09:02;;;;;;;2.40;1.30;;;19.50;68.40;;;;;;4955328;29;20455;-68
2022/05/13 05:11:28;;;;;;;5.53;1.70;;;19.50;68.40;;;;;;4955056;29;20444;-68
2022/05/13 05:13:56;;;;;;;4.60;2.30;;;19.50;68.40;;;;;;4955237;29;20516;-68
2022/05/13 05:16:29;;;;;;;2.73;1.67;;;19.50;68.50;;;;;;4954149;29;20481;-68
2022/05/13 05:18:56;;;;;;;3.47;1.63;;;19.50;68.60;;;;;;4955102;29;20442;-68
2022/05/13 05:21:25;;;;;;;4.20;1.60;;;19.50;68.60;;;;;;4953963;29;20544;-68
2022/05/13 05:23:52;;;;;;;2.80;1.80;;;19.40;68.50;;;;;;4959040;28;20471;-68
2022/05/13 05:26:18;;;;;;;3.10;1.23;;;19.40;68.60;;;;;;4957105;28;20425;-68
2022/05/13 05:28:51;;;;;;;4.60;1.77;;;19.40;68.60;;;;;;4973065;28;20437;-68
2022/05/13 05:31:17;;;;;;;4.93;1.70;;;19.40;68.70;;;;;;4951798;28;20712;-68
2022/05/13 05:33:45;;;;;;;3.73;1.60;;;19.40;68.70;;;;;;4947895;29;20819;-68
2022/05/13 05:36:11;;;;;;;5.30;2.40;;;19.40;68.70;;;;;;4953504;29;20451;-68
2022/05/13 05:38:40;;;;;;;4.90;1.83;;;19.40;68.80;;;;;;4953392;28;20454;-68
2022/05/13 05:41:06;;;;;;;3.70;1.97;;;19.30;68.80;;;;;;4953673;29;20176;-68
2022/05/13 05:43:35;;;;;;;3.70;1.80;;;19.30;68.80;;;;;;4954577;28;20400;-68
2022/05/13 05:46:02;;;;;;;3.57;2.00;;;19.30;68.90;;;;;;4953028;29;20432;-68
2022/05/13 05:48:28;;;;;;;3.20;1.50;;;19.30;69.00;;;;;;4954537;29;20462;-68
2022/05/13 05:50:56;;;;;;;4.60;2.00;;;19.30;69.10;;;;;;4953424;29;20451;-68
2022/05/13 05:58:58;;;;;;;3.90;1.90;;;19.20;69.20;;;;;;4953149;29;20431;-68
2022/05/13 06:01:24;;;;;;;2.97;1.77;;;19.20;69.20;;;;;;4954507;29;20440;-68
2022/05/13 06:03:52;;;;;;;5.30;2.40;;;19.20;69.30;;;;;;4934327;29;20642;-68
2022/05/13 06:06:20;;;;;;;5.30;1.50;;;19.20;69.40;;;;;;4950047;29;20476;-68
2022/05/13 06:08:50;;;;;;;3.93;1.57;;;19.20;69.50;;;;;;4935091;29;20444;-68
2022/05/13 06:11:16;;;;;;;3.23;1.90;;;19.20;69.60;;;;;;4933681;29;20447;-68
2022/05/13 06:13:41;;;;;;;4.20;1.73;;;19.20;69.70;;;;;;4933922;29;20467;-68
2022/05/13 06:16:10;;;;;;;3.77;1.77;;;19.10;69.60;;;;;;4935154;29;20494;-67
2022/05/13 06:18:37;;;;;;;3.80;1.87;;;19.10;69.70;;;;;;4935118;29;20476;-68
2022/05/13 06:21:03;;;;;;;7.30;2.27;;;19.10;69.70;;;;;;4949944;29;20422;-68
2022/05/13 06:23:35;;;;;;;3.30;1.97;;;19.10;69.80;;;;;;4934891;29;20840;-68
2022/05/13 06:26:04;;;;;;;5.87;2.07;;;19.10;70.80;;;;;;4950036;29;20948;-68
2022/05/13 06:28:32;;;;;;;4.50;1.90;;;19.10;70.00;;;;;;4933975;29;20761;-68
2022/05/13 06:30:58;;;;;;;5.00;1.70;;;19.10;70.10;;;;;;4937024;29;20552;-68
2022/05/13 06:33:26;;;;;;;5.60;2.33;;;19.10;70.10;;;;;;4953084;29;20896;-68
2022/05/13 06:35:53;;;;;;;5.77;1.93;;;19.10;70.10;;;;;;4952716;29;20827;-68
2022/05/13 06:38:22;;;;;;;4.53;2.00;;;19.10;70.10;;;;;;4935881;29;20440;-68
2022/05/13 06:40:53;;;;;;;4.50;2.23;;;19.10;70.20;;;;;;4951661;29;20474;-68
2022/05/13 06:43:24;;;;;;;5.33;2.00;;;19.10;70.30;;;;;;4952968;28;20475;-68
2022/05/13 06:45:50;;;;;;;2.50;1.83;;;19.00;70.20;;;;;;4953100;29;21000;-68
2022/05/13 06:48:19;;;;;;;4.30;1.70;;;19.00;70.30;;;;;;4968976;28;20462;-68
2022/05/13 06:50:46;;;;;;;5.20;1.93;;;19.00;70.30;;;;;;4953728;28;20522;-68
2022/05/13 06:53:13;;;;;;;6.40;1.90;;;19.00;70.30;;;;;;4953989;28;20432;-69
2022/05/13 06:55:43;;;;;;;4.20;1.90;;;19.00;70.30;;;;;;4938467;29;20493;-68
2022/05/13 06:58:12;;;;;;;3.00;1.87;;;19.10;70.30;;;;;;4957566;29;20410;-70
2022/05/13 07:00:42;;;;;;;5.07;1.77;;;19.00;70.30;;;;;;4957595;29;20417;-68
2022/05/13 07:03:13;;;;;;;5.70;2.50;;;19.00;70.40;;;;;;4958677;28;20437;-68
2022/05/13 07:05:42;;;;;;;6.17;2.10;;;19.00;70.40;;;;;;4957647;29;20813;-68
2022/05/13 07:08:11;;;;;;;4.90;1.80;;;19.10;70.50;;;;;;4956255;29;20407;-70
2022/05/13 07:10:45;;;;;;;2.80;1.80;;;19.10;70.50;;;;;;4956093;29;20415;-68
2022/05/13 07:13:15;;;;;;;3.80;1.80;;;19.10;70.50;;;;;;4956176;29;20778;-67
2022/05/13 07:15:45;;;;;;;4.10;2.20;;;19.10;70.60;;;;;;4957760;28;20479;-68
2022/05/13 07:18:11;;;;;;;3.80;1.70;;;19.00;70.60;;;;;;4956334;29;20442;-68
2022/05/13 07:20:38;;;;;;;4.30;1.73;;;19.10;70.70;;;;;;4956227;29;20427;-68
2022/05/13 07:23:04;;;;;;;4.20;1.97;;;19.10;70.60;;;;;;4956015;29;20418;-68
2022/05/13 07:25:32;;;;;;;5.17;1.80;;;19.00;70.60;;;;;;4956312;28;20450;-68
2022/05/13 07:28:01;;;;;;;3.10;1.80;;;19.00;70.70;;;;;;4956056;29;20928;-68
2022/05/13 07:30:33;;;;;;;2.90;1.73;;;19.10;70.90;;;;;;4957332;28;20435;-68
2022/05/13 07:33:01;;;;;;;4.70;2.17;;;19.10;70.90;;;;;;4957173;29;20411;-69
2022/05/13 07:35:27;;;;;;;6.03;1.80;;;19.10;70.90;;;;;;4956048;29;20835;-68
2022/05/13 07:37:55;;;;;;;3.60;1.93;;;19.10;71.00;;;;;;4939752;29;20427;-67
2022/05/13 07:43:16;;;;;;;3.47;1.67;;;19.00;70.90;;;;;;4956907;29;20510;-68
2022/05/13 07:45:42;;;;;;;3.17;1.80;;;19.00;70.90;;;;;;4956892;29;20798;-68
2022/05/13 07:48:11;;;;;;;4.90;1.90;;;19.00;71.00;;;;;;4955677;29;20437;-68
2022/05/13 07:50:42;;;;;;;2.80;1.90;;;19.00;71.00;;;;;;4939609;29;20434;-68
2022/05/13 07:53:10;;;;;;;4.10;2.00;;;19.00;71.00;;;;;;4956733;29;20407;-68
2022/05/13 07:55:40;;;;;;;4.50;1.70;;;19.00;71.00;;;;;;4939522;29;20453;-68
2022/05/13 07:58:11;;;;;;;4.70;2.00;;;19.00;70.90;;;;;;4939229;29;20418;-68
2022/05/13 08:00:38;;;;;;;4.63;2.20;;;19.10;71.10;;;;;;4955584;29;20519;-68
2022/05/13 08:03:12;;;;;;;4.90;2.20;;;19.10;71.10;;;;;;4939578;28;20497;-68
2022/05/13 08:05:44;;;;;;;5.53;1.80;;;19.00;71.00;;;;;;4954996;28;20407;-68
2022/05/13 08:08:21;;;;;;;3.27;1.73;;;19.00;71.10;;;;;;4954649;29;20450;-68
2022/05/13 08:10:54;;;;;;;4.83;1.70;;;19.10;71.20;;;;;;4955563;29;20537;-68
2022/05/13 08:13:24;;;;;;;3.27;2.00;;;19.10;71.10;;;;;;4939283;29;20450;-68
2022/05/13 08:15:51;;;;;;;3.60;2.10;;;19.10;71.10;;;;;;4956101;28;20881;-68
2022/05/13 08:18:19;;;;;;;3.87;1.87;;;19.10;71.10;;;;;;4938869;29;20462;-69
2022/05/13 08:20:53;;;;;;;3.30;1.93;;;19.10;71.10;;;;;;4919928;29;20801;-69
2022/05/13 08:23:20;;;;;;;4.30;2.10;;;19.10;71.10;;;;;;4936912;29;20451;-68
2022/05/13 08:25:48;;;;;;;4.97;2.10;;;19.10;71.10;;;;;;4956377;29;20443;-68
2022/05/13 08:28:21;;;;;;;3.50;1.83;;;19.10;71.20;;;;;;4954669;29;20522;-68
2022/05/13 08:30:48;;;;;;;4.07;2.00;;;19.10;71.20;;;;;;4954620;29;20482;-71
2022/05/13 08:33:14;;;;;;;4.87;1.67;;;19.10;71.20;;;;;;4938755;29;20506;-70
2022/05/13 08:35:46;;;;;;;3.57;1.80;;;19.10;71.20;;;;;;4939132;29;20491;-70
2022/05/13 08:38:21;;;;;;;5.00;1.80;;;19.10;71.20;;;;;;4953973;29;20821;-70
2022/05/13 08:40:53;;;;;;;3.87;2.00;;;19.10;71.10;;;;;;4938888;29;20546;-70
2022/05/13 08:43:28;;;;;;;3.27;2.30;;;19.10;71.10;;;;;;4954628;29;20427;-70
2022/05/13 08:46:04;;;;;;;3.33;1.80;;;19.10;71.20;;;;;;4968715;28;20534;-70
2022/05/13 08:48:54;;;;;;;4.63;1.83;;;19.10;71.10;;;;;;4955655;28;20920;-70
2022/05/13 08:51:50;;;;;;;5.03;2.23;;;19.10;71.10;;;;;;4945152;29;20441;-70
2022/05/13 08:54:32;;;;;;;4.87;1.90;;;19.10;71.10;;;;;;4942979;28;20419;-70
2022/05/13 08:57:05;;;;;;;4.40;1.70;;;19.10;71.20;;;;;;4963824;28;20512;-70
2022/05/13 08:59:55;;;;;;;3.53;1.60;;;19.20;71.30;;;;;;4938111;29;20483;-70
2022/05/13 09:02:33;;;;;;;8.17;2.50;;;19.20;71.20;;;;;;4955327;29;20901;-70
2022/05/13 09:05:07;;;;;;;6.20;2.30;;;19.20;71.10;;;;;;4955203;28;20458;-70
2022/05/13 09:07:35;;;;;;;3.80;1.77;;;19.20;71.20;;;;;;4954218;29;20428;-69
2022/05/13 09:10:06;;;;;;;4.53;2.13;;;19.20;71.40;;;;;;4937874;29;20510;-70
2022/05/13 09:12:41;;;;;;;4.30;2.30;;;19.20;71.40;;;;;;4954094;29;20451;-70
2022/05/13 09:15:24;;;;;;;10.30;2.07;;;19.20;71.40;;;;;;4954021;29;20481;-71
2022/05/13 09:18:17;;;;;;;7.03;1.97;;;19.20;71.20;;;;;;4953948;28;20430;-69
2022/05/13 09:20:57;;;;;;;5.37;1.83;;;19.20;72.10;;;;;;4950398;28;20517;-70
2022/05/13 09:23:24;;;;;;;3.90;1.90;;;19.30;71.30;;;;;;4960328;28;20413;-70
2022/05/13 09:26:05;;;;;;;4.93;1.90;;;19.30;71.40;;;;;;4962554;28;20426;-70
2022/05/13 09:28:37;;;;;;;4.70;2.13;;;19.30;71.40;;;;;;4949570;28;20968;-69
2022/05/13 09:31:21;;;;;;;4.33;2.07;;;19.40;71.50;;;;;;4964709;28;20422;-69
2022/05/13 09:33:51;;;;;;;3.23;1.67;;;19.40;71.50;;;;;;4968255;28;20517;-70
2022/05/13 09:36:23;;;;;;;4.10;1.90;;;19.40;71.50;;;;;;4963063;28;20459;-70
2022/05/13 09:38:59;;;;;;;4.13;1.83;;;19.40;71.50;;;;;;4944555;28;20502;-69
2022/05/13 09:41:33;;;;;;;2.87;1.93;;;19.40;71.40;;;;;;4938743;29;20939;-70
2022/05/13 09:44:08;;;;;;;3.70;1.70;;;19.50;71.50;;;;;;4953512;29;20977;-70
2022/05/13 09:46:36;;;;;;;3.30;1.60;;;19.50;71.40;;;;;;4918924;29;20535;-70
2022/05/13 09:49:02;;;;;;;4.43;2.10;;;19.50;71.30;;;;;;4935552;29;20492;-70
2022/05/13 09:51:36;;;;;;;6.00;2.10;;;19.60;71.30;;;;;;4918664;29;20504;-70
2022/05/13 09:54:09;;;;;;;4.30;1.60;;;19.60;71.10;;;;;;4935145;29;20409;-70
2022/05/13 09:56:43;;;;;;;4.70;2.00;;;19.60;71.10;;;;;;4942187;29;20554;-70
2022/05/13 09:59:20;;;;;;;5.87;1.90;;;19.60;70.80;;;;;;4937063;29;20819;-70
2022/05/13 10:01:53;;;;;;;3.33;1.40;;;19.60;70.80;;;;;;4953319;29;20446;-70
2022/05/13 10:04:21;;;;;;;3.90;1.70;;;19.70;70.80;;;;;;4953223;28;20428;-70
2022/05/13 10:07:01;;;;;;;3.60;1.60;;;19.70;70.70;;;;;;4954323;29;20416;-70
2022/05/13 10:15:38;;;;;;;4.03;2.03;;;19.80;70.60;;;;;;4952835;28;21017;-70
2022/05/13 10:18:24;;;;;;;5.23;1.80;;;19.80;70.50;;;;;;4953029;29;20914;-70
2022/05/13 10:21:13;;;;;;;4.17;1.50;;;19.80;70.40;;;;;;4937060;29;20469;-70
2022/05/13 10:23:44;;;;;;;1.70;1.40;;;19.80;70.40;;;;;;4937068;29;20847;-70
2022/05/13 10:26:21;;;;;;;3.03;1.77;;;19.90;70.50;;;;;;4937672;29;20492;-70
2022/05/13 10:29:07;;;;;;;5.73;1.70;;;19.90;70.40;;;;;;4954344;28;20515;-70
2022/05/13 10:31:42;;;;;;;3.90;1.40;;;19.90;70.30;;;;;;4957432;29;20537;-70
2022/05/13 10:34:21;;;;;;;2.63;1.50;;;19.90;70.00;;;;;;4941251;29;20429;-70
2022/05/13 10:37:04;;;;;;;1.90;1.60;;;20.00;69.90;;;;;;4940902;29;20468;-70
2022/05/13 10:39:45;;;;;;;3.00;1.50;;;20.00;69.40;;;;;;4956750;29;20439;-69
2022/05/13 10:42:40;;;;;;;5.03;1.70;;;20.00;69.10;;;;;;4941348;29;20503;-69
2022/05/13 10:45:27;;;;;;;3.03;1.60;;;20.00;68.80;;;;;;4954962;28;20448;-69
2022/05/13 10:48:05;;;;;;;3.10;1.70;;;20.00;68.90;;;;;;4955114;29;20460;-70
2022/05/13 10:50:57;;;;;;;4.20;1.37;;;20.00;68.90;;;;;;4952798;28;20437;-71
2022/05/13 10:54:00;;;;;;;1.80;1.57;;;20.00;69.00;;;;;;4956396;29;20455;-70
2022/05/13 10:56:46;;;;;;;3.60;1.40;;;20.10;69.00;;;;;;4940030;29;20480;-69
2022/05/13 10:59:41;;;;;;;2.80;1.37;;;20.10;69.00;;;;;;4956355;29;20534;-71
2022/05/13 11:02:22;;;;;;;4.50;1.87;;;20.10;69.00;;;;;;4939744;29;20424;-70
2022/05/13 11:05:12;;;;;;;3.23;1.40;;;20.10;69.10;;;;;;4967751;28;20561;-70
2022/05/13 11:08:16;;;;;;;2.40;1.50;;;20.10;69.10;;;;;;4975491;28;20409;-70
2022/05/13 11:11:27;;;;;;;3.47;1.73;;;20.20;69.20;;;;;;4955964;29;20441;-70
2022/05/13 11:14:05;;;;;;;2.30;1.93;;;20.20;69.10;;;;;;4947808;29;20448;-70
2022/05/13 11:16:39;;;;;;;2.13;1.80;;;20.20;69.10;;;;;;4956900;28;20958;-70
2022/05/13 11:19:13;;;;;;;4.87;1.87;;;20.20;68.80;;;;;;4950749;29;20532;-70
2022/05/13 11:21:43;;;;;;;2.93;1.60;;;20.20;68.70;;;;;;4929423;29;20525;-70
2022/05/13 11:27:30;;;;;;;2.80;1.70;;;20.30;68.50;;;;;;4943585;29;20440;-70
2022/05/13 11:30:08;;;;;;;4.80;1.47;;;20.30;68.40;;;;;;4938674;29;20462;-70
2022/05/13 11:32:55;;;;;;;4.00;1.57;;;20.30;68.10;;;;;;4954411;28;20443;-70
2022/05/13 11:35:38;;;;;;;7.20;2.03;;;20.30;68.10;;;;;;4937213;29;20466;-70
2022/05/13 11:38:29;;;;;;;2.70;1.77;;;20.40;68.00;;;;;;4944601;28;20928;-70
2022/05/13 11:41:04;;;;;;;2.70;1.63;;;20.40;67.80;;;;;;4975216;28;20410;-70
2022/05/13 11:43:58;;;;;;;3.73;1.60;;;20.40;67.80;;;;;;4976610;28;20471;-70
2022/05/13 11:46:57;;;;;;;3.17;1.87;;;20.40;67.70;;;;;;4976506;28;20462;-70
2022/05/13 11:49:35;;;;;;;5.33;2.13;;;20.40;67.60;;;;;;4959177;28;20448;-70
2022/05/13 11:52:13;;;;;;;3.70;1.90;;;20.40;67.70;;;;;;4961084;28;20458;-70
2022/05/13 11:54:48;;;;;;;2.47;2.00;;;20.50;67.70;;;;;;4936623;29;20468;-70
2022/05/13 11:57:50;;;;;;;3.03;2.00;;;20.50;67.70;;;;;;4951174;29;20472;-70
2022/05/13 12:00:31;;;;;;;2.83;1.70;;;20.50;67.60;;;;;;4949779;29;20806;-70
2022/05/13 12:03:03;;;;;;;3.70;2.10;;;20.60;67.90;;;;;;4921256;28;20435;-70
2022/05/13 12:05:52;;;;;;;3.60;2.30;;;20.60;67.90;;;;;;4974922;28;20426;-70
2022/05/13 12:08:46;;;;;;;4.37;2.00;;;20.60;68.00;;;;;;4975061;28;20887;-70
2022/05/13 12:11:47;;;;;;;4.80;2.00;;;20.70;68.10;;;;;;4934520;29;20994;-70
2022/05/13 12:14:34;;;;;;;3.53;1.77;;;20.70;68.10;;;;;;4963644;28;20813;-70
2022/05/13 12:17:24;;;;;;;2.93;2.03;;;20.70;67.70;;;;;;4975985;28;20604;-70
2022/05/13 12:20:28;;;;;;;5.50;2.20;;;20.70;67.40;;;;;;4974922;28;20817;-70
2022/05/13 12:23:16;;;;;;;2.27;2.07;;;20.80;67.00;;;;;;4958686;28;20456;-70
2022/05/13 12:25:47;;;;;;;5.03;2.27;;;20.80;66.90;;;;;;4975027;28;20419;-70
2022/05/13 12:28:16;;;;;;;3.83;2.10;;;20.80;66.80;;;;;;4958849;28;20472;-70
2022/05/13 12:30:44;;;;;;;2.43;2.10;;;20.80;67.00;;;;;;4958412;28;20463;-70
2022/05/13 12:33:20;;;;;;;3.00;1.90;;;20.80;67.10;;;;;;4975814;28;20402;-70
2022/05/13 12:39:13;;;;;;;5.17;2.13;;;20.90;67.20;;;;;;4956288;29;20866;-70
2022/05/13 12:41:42;;;;;;;2.40;2.17;;;20.90;67.90;;;;;;4940339;29;20966;-70
2022/05/13 12:44:14;;;;;;;3.43;2.00;;;21.00;67.10;;;;;;4956252;29;20415;-70
2022/05/13 12:46:49;;;;;;;2.17;1.97;;;21.00;66.70;;;;;;4955103;29;20400;-70
2022/05/13 12:49:24;;;;;;;2.80;2.00;;;21.00;66.80;;;;;;4954882;29;20547;-70
2022/05/13 12:52:12;;;;;;;3.77;2.30;;;21.00;66.60;;;;;;4955048;28;20845;-71
2022/05/13 12:55:01;;;;;;;5.53;1.70;;;21.10;66.30;;;;;;4970916;28;20863;-70
2022/05/13 12:58:00;;;;;;;4.00;2.00;;;21.10;66.20;;;;;;4945279;29;20584;-70
2022/05/13 13:00:48;;;;;;;3.23;2.00;;;21.10;66.20;;;;;;4938877;29;20434;-70
2022/05/13 13:03:22;;;;;;;4.27;1.60;;;21.10;66.20;;;;;;4915244;28;20499;-69
2022/05/13 13:06:02;;;;;;;3.90;2.03;;;21.10;66.20;;;;;;4938979;29;20429;-70
2022/05/13 13:08:39;;;;;;;3.30;1.90;;;21.10;66.10;;;;;;4938589;29;21094;-70
2022/05/13 13:11:11;;;;;;;4.07;1.77;;;21.20;66.00;;;;;;4938732;29;20474;-70
2022/05/13 13:13:46;;;;;;;4.30;2.20;;;21.20;66.10;;;;;;4954305;29;20493;-70
2022/05/13 13:16:26;;;;;;;3.10;1.90;;;21.20;67.20;;;;;;4938494;29;20461;-70
2022/05/13 13:19:13;;;;;;;5.00;2.10;;;21.20;66.60;;;;;;4938570;29;20453;-70
2022/05/13 13:21:41;;;;;;;4.10;2.17;;;21.30;66.70;;;;;;4947022;29;20431;-70
2022/05/13 13:24:19;;;;;;;4.40;2.30;;;21.30;66.70;;;;;;4955584;28;20398;-70
2022/05/13 13:26:50;;;;;;;5.10;2.17;;;21.30;66.60;;;;;;4970088;28;20410;-70
2022/05/13 13:29:30;;;;;;;4.90;1.80;;;21.30;66.40;;;;;;4954412;29;20509;-70
2022/05/13 13:31:59;;;;;;;4.37;1.77;;;21.30;66.10;;;;;;4954341;29;20554;-70
2022/05/13 13:34:39;;;;;;;3.60;2.33;;;21.40;66.10;;;;;;4937342;28;20474;-70
2022/05/13 13:37:11;;;;;;;2.43;1.63;;;21.40;65.90;;;;;;4918952;29;20478;-70
2022/05/13 13:39:40;;;;;;;4.80;1.60;;;21.40;65.80;;;;;;4949445;28;20457;-70
2022/05/13 13:42:15;;;;;;;3.27;1.70;;;21.40;65.90;;;;;;4949741;29;20437;-70
2022/05/13 13:45:02;;;;;;;3.57;1.57;;;21.50;66.20;;;;;;4939292;28;20445;-70
2022/05/13 13:47:34;;;;;;;5.57;2.10;;;21.50;65.90;;;;;;4960914;28;20441;-70